sensor_id;sensor_type;location;lat;lon;timestamp;pressure;altitude;pressure_sealevel;temperature
75658;BMP280;64255;49.892;17.884;2023-05-10T05:02:33;98762.06;;;9.62
75658;BMP280;64255;49.892;17.884;2023-05-10T05:05:19;98755.47;;;10.25
75658;BMP280;64255;49.892;17.884;2023-05-10T05:08:06;98759.50;;;10.68
75658;BMP280;64255;49.892;17.884;2023-05-10T05:10:52;98755.78;;;10.66
75658;BMP280;64255;49.892;17.884;2023-05-10T05:13:39;98763.00;;;11.14
75658;BMP280;64255;49.892;17.884;2023-05-10T05:16:25;98761.44;;;11.67
75658;BMP280;64255;49.892;17.884;2023-05-10T05:19:12;98760.94;;;12.19
75658;BMP280;64255;49.892;17.884;2023-05-10T05:21:58;98763.63;;;11.68
75658;BMP280;64255;49.892;17.884;2023-05-10T05:24:45;98763.72;;;11.89
75658;BMP280;64255;49.892;17.884;2023-05-10T05:27:32;98765.88;;;12.26
75658;BMP280;64255;49.892;17.884;2023-05-10T05:30:18;98767.47;;;12.74
75658;BMP280;64255;49.892;17.884;2023-05-10T05:33:05;98762.97;;;12.92
75658;BMP280;64255;49.892;17.884;2023-05-10T05:35:51;98752.50;;;12.67
75658;BMP280;64255;49.892;17.884;2023-05-10T05:38:38;98753.97;;;13.53
75658;BMP280;64255;49.892;17.884;2023-05-10T05:41:24;98749.59;;;12.71
75658;BMP280;64255;49.892;17.884;2023-05-10T05:44:10;98752.09;;;13.33
75658;BMP280;64255;49.892;17.884;2023-05-10T05:46:57;98759.72;;;12.82
75658;BMP280;64255;49.892;17.884;2023-05-10T05:49:43;98755.31;;;13.69
75658;BMP280;64255;49.892;17.884;2023-05-10T05:52:30;98758.63;;;13.58
75658;BMP280;64255;49.892;17.884;2023-05-10T05:55:17;98767.22;;;13.56
75658;BMP280;64255;49.892;17.884;2023-05-10T05:58:03;98759.19;;;13.30
75658;BMP280;64255;49.892;17.884;2023-05-10T06:00:51;98772.19;;;14.13
75658;BMP280;64255;49.892;17.884;2023-05-10T06:03:38;98773.53;;;14.46
75658;BMP280;64255;49.892;17.884;2023-05-10T06:06:24;98765.00;;;14.53
75658;BMP280;64255;49.892;17.884;2023-05-10T06:09:11;98769.66;;;14.58
75658;BMP280;64255;49.892;17.884;2023-05-10T06:11:58;98770.59;;;14.44
75658;BMP280;64255;49.892;17.884;2023-05-10T06:14:44;98769.44;;;14.84
75658;BMP280;64255;49.892;17.884;2023-05-10T06:17:30;98768.03;;;15.17
75658;BMP280;64255;49.892;17.884;2023-05-10T06:20:17;98763.13;;;15.21
75658;BMP280;64255;49.892;17.884;2023-05-10T06:23:04;98761.63;;;15.54
75658;BMP280;64255;49.892;17.884;2023-05-10T06:25:51;98758.72;;;15.18
75658;BMP280;64255;49.892;17.884;2023-05-10T06:28:37;98762.59;;;14.89
75658;BMP280;64255;49.892;17.884;2023-05-10T06:31:24;98761.13;;;15.56
75658;BMP280;64255;49.892;17.884;2023-05-10T06:34:10;98761.84;;;15.68
75658;BMP280;64255;49.892;17.884;2023-05-10T06:36:56;98757.22;;;16.27
75658;BMP280;64255;49.892;17.884;2023-05-10T06:39:43;98762.75;;;16.88
75658;BMP280;64255;49.892;17.884;2023-05-10T06:42:29;98769.16;;;16.85
75658;BMP280;64255;49.892;17.884;2023-05-10T06:45:16;98755.81;;;17.47
75658;BMP280;64255;49.892;17.884;2023-05-10T06:48:03;98760.97;;;17.26
75658;BMP280;64255;49.892;17.884;2023-05-10T06:50:49;98757.28;;;16.93
75658;BMP280;64255;49.892;17.884;2023-05-10T06:53:36;98755.16;;;17.41
75658;BMP280;64255;49.892;17.884;2023-05-10T06:56:23;98752.34;;;18.15
75658;BMP280;64255;49.892;17.884;2023-05-10T06:59:09;98757.16;;;18.74
75658;BMP280;64255;49.892;17.884;2023-05-10T07:01:56;98750.84;;;18.14
75658;BMP280;64255;49.892;17.884;2023-05-10T07:04:42;98752.59;;;17.74
75658;BMP280;64255;49.892;17.884;2023-05-10T07:07:29;98756.97;;;18.85
75658;BMP280;64255;49.892;17.884;2023-05-10T07:10:15;98752.84;;;19.11
75658;BMP280;64255;49.892;17.884;2023-05-10T07:13:02;98753.84;;;20.02
75658;BMP280;64255;49.892;17.884;2023-05-10T07:15:48;98760.81;;;19.36
75658;BMP280;64255;49.892;17.884;2023-05-10T07:18:35;98753.88;;;18.95
75658;BMP280;64255;49.892;17.884;2023-05-10T07:21:21;98751.22;;;18.43
75658;BMP280;64255;49.892;17.884;2023-05-10T07:24:08;98758.59;;;17.66
75658;BMP280;64255;49.892;17.884;2023-05-10T07:26:54;98757.31;;;18.63
75658;BMP280;64255;49.892;17.884;2023-05-10T07:29:41;98753.03;;;17.78
75658;BMP280;64255;49.892;17.884;2023-05-10T07:32:27;98748.25;;;18.92
75658;BMP280;64255;49.892;17.884;2023-05-10T07:35:14;98750.91;;;18.28
75658;BMP280;64255;49.892;17.884;2023-05-10T07:38:01;98750.56;;;19.29
75658;BMP280;64255;49.892;17.884;2023-05-10T07:40:47;98753.47;;;19.04
75658;BMP280;64255;49.892;17.884;2023-05-10T07:43:33;98749.88;;;20.87
75658;BMP280;64255;49.892;17.884;2023-05-10T07:46:20;98768.41;;;19.64
75658;BMP280;64255;49.892;17.884;2023-05-10T07:49:06;98750.31;;;19.00
75658;BMP280;64255;49.892;17.884;2023-05-10T07:51:53;98747.28;;;18.90
75658;BMP280;64255;49.892;17.884;2023-05-10T07:54:39;98756.00;;;19.15
75658;BMP280;64255;49.892;17.884;2023-05-10T07:57:26;98736.13;;;19.74
75658;BMP280;64255;49.892;17.884;2023-05-10T08:00:13;98743.91;;;20.46
75658;BMP280;64255;49.892;17.884;2023-05-10T08:03:03;98747.44;;;20.55
75658;BMP280;64255;49.892;17.884;2023-05-10T08:05:50;98738.03;;;20.35
75658;BMP280;64255;49.892;17.884;2023-05-10T08:08:36;98752.66;;;19.62
75658;BMP280;64255;49.892;17.884;2023-05-10T08:11:23;98741.09;;;18.44
75658;BMP280;64255;49.892;17.884;2023-05-10T08:14:09;98737.09;;;19.09
75658;BMP280;64255;49.892;17.884;2023-05-10T08:16:56;98744.25;;;18.48
75658;BMP280;64255;49.892;17.884;2023-05-10T08:19:42;98745.34;;;19.17
75658;BMP280;64255;49.892;17.884;2023-05-10T08:22:29;98750.28;;;19.93
75658;BMP280;64255;49.892;17.884;2023-05-10T08:25:15;98754.31;;;19.25
75658;BMP280;64255;49.892;17.884;2023-05-10T08:28:02;98753.38;;;18.64
75658;BMP280;64255;49.892;17.884;2023-05-10T08:30:49;98756.41;;;19.46
75658;BMP280;64255;49.892;17.884;2023-05-10T08:33:36;98755.97;;;19.02
75658;BMP280;64255;49.892;17.884;2023-05-10T08:36:22;98747.22;;;19.36
75658;BMP280;64255;49.892;17.884;2023-05-10T08:39:09;98756.56;;;18.81
75658;BMP280;64255;49.892;17.884;2023-05-10T08:42:02;98749.03;;;18.74
75658;BMP280;64255;49.892;17.884;2023-05-10T08:44:50;98750.16;;;19.38
75658;BMP280;64255;49.892;17.884;2023-05-10T08:47:37;98754.88;;;18.78
75658;BMP280;64255;49.892;17.884;2023-05-10T08:50:26;98744.69;;;18.98
75658;BMP280;64255;49.892;17.884;2023-05-10T08:53:13;98765.44;;;18.95
75658;BMP280;64255;49.892;17.884;2023-05-10T08:56:02;98755.97;;;18.37
75658;BMP280;64255;49.892;17.884;2023-05-10T08:58:49;98749.03;;;17.84
75658;BMP280;64255;49.892;17.884;2023-05-10T09:01:37;98754.41;;;18.61
75658;BMP280;64255;49.892;17.884;2023-05-10T09:04:24;98758.63;;;18.24
75658;BMP280;64255;49.892;17.884;2023-05-10T09:07:11;98754.00;;;18.18
75658;BMP280;64255;49.892;17.884;2023-05-10T09:09:58;98759.59;;;18.07
75658;BMP280;64255;49.892;17.884;2023-05-10T09:12:46;98757.50;;;18.13
75658;BMP280;64255;49.892;17.884;2023-05-10T09:15:32;98755.03;;;18.15
75658;BMP280;64255;49.892;17.884;2023-05-10T09:18:19;98752.06;;;18.51
75658;BMP280;64255;49.892;17.884;2023-05-10T09:21:05;98750.78;;;18.20
75658;BMP280;64255;49.892;17.884;2023-05-10T09:23:52;98743.69;;;18.36
75658;BMP280;64255;49.892;17.884;2023-05-10T09:26:48;98751.69;;;18.09
75658;BMP280;64255;49.892;17.884;2023-05-10T09:29:43;98760.13;;;17.62
75658;BMP280;64255;49.892;17.884;2023-05-10T09:32:40;98747.91;;;18.50
75658;BMP280;64255;49.892;17.884;2023-05-10T09:35:31;98755.94;;;18.04
75658;BMP280;64255;49.892;17.884;2023-05-10T09:38:17;98769.41;;;18.10
75658;BMP280;64255;49.892;17.884;2023-05-10T09:41:04;98760.53;;;17.91
75658;BMP280;64255;49.892;17.884;2023-05-10T09:43:56;98756.63;;;17.86
75658;BMP280;64255;49.892;17.884;2023-05-10T09:46:42;98754.31;;;17.96
75658;BMP280;64255;49.892;17.884;2023-05-10T09:49:29;98753.16;;;17.91
75658;BMP280;64255;49.892;17.884;2023-05-10T09:52:16;98754.63;;;17.92
75658;BMP280;64255;49.892;17.884;2023-05-10T09:55:02;98754.00;;;17.99
75658;BMP280;64255;49.892;17.884;2023-05-10T09:57:59;98755.53;;;17.76
75658;BMP280;64255;49.892;17.884;2023-05-10T10:00:47;98744.63;;;17.81
75658;BMP280;64255;49.892;17.884;2023-05-10T10:03:42;98743.91;;;18.19
75658;BMP280;64255;49.892;17.884;2023-05-10T10:06:29;98741.56;;;18.29
75658;BMP280;64255;49.892;17.884;2023-05-10T10:09:15;98740.09;;;17.90
75658;BMP280;64255;49.892;17.884;2023-05-10T10:12:03;98735.19;;;18.26
75658;BMP280;64255;49.892;17.884;2023-05-10T10:14:51;98730.56;;;18.40
75658;BMP280;64255;49.892;17.884;2023-05-10T10:17:37;98725.69;;;18.98
75658;BMP280;64255;49.892;17.884;2023-05-10T10:20:24;98737.81;;;18.13
75658;BMP280;64255;49.892;17.884;2023-05-10T10:23:10;98734.53;;;18.01
75658;BMP280;64255;49.892;17.884;2023-05-10T10:25:58;98723.56;;;18.77
75658;BMP280;64255;49.892;17.884;2023-05-10T10:35:23;98731.03;;;18.06
75658;BMP280;64255;49.892;17.884;2023-05-10T10:38:10;98728.38;;;18.38
75658;BMP280;64255;49.892;17.884;2023-05-10T10:41:29;98726.13;;;18.24
75658;BMP280;64255;49.892;17.884;2023-05-10T10:47:22;98727.47;;;18.17
75658;BMP280;64255;49.892;17.884;2023-05-10T10:50:09;98724.44;;;18.01
75658;BMP280;64255;49.892;17.884;2023-05-10T10:53:10;98713.31;;;17.86
75658;BMP280;64255;49.892;17.884;2023-05-10T10:56:09;98706.94;;;18.02
75658;BMP280;64255;49.892;17.884;2023-05-10T10:58:59;98715.78;;;18.03
75658;BMP280;64255;49.892;17.884;2023-05-10T11:01:52;98702.03;;;18.01
75658;BMP280;64255;49.892;17.884;2023-05-10T11:04:43;98722.28;;;18.13
75658;BMP280;64255;49.892;17.884;2023-05-10T11:07:29;98701.31;;;18.00
75658;BMP280;64255;49.892;17.884;2023-05-10T11:10:23;98697.03;;;18.56
75658;BMP280;64255;49.892;17.884;2023-05-10T11:13:10;98702.28;;;18.68
75658;BMP280;64255;49.892;17.884;2023-05-10T11:15:57;98709.94;;;19.36
75658;BMP280;64255;49.892;17.884;2023-05-10T11:19:04;98701.50;;;19.26
75658;BMP280;64255;49.892;17.884;2023-05-10T11:22:12;98694.59;;;19.39
75658;BMP280;64255;49.892;17.884;2023-05-10T11:24:58;98700.66;;;19.05
75658;BMP280;64255;49.892;17.884;2023-05-10T11:27:48;98693.13;;;18.38
75658;BMP280;64255;49.892;17.884;2023-05-10T11:30:35;98703.97;;;18.84
75658;BMP280;64255;49.892;17.884;2023-05-10T11:33:22;98697.44;;;19.06
75658;BMP280;64255;49.892;17.884;2023-05-10T11:36:15;98699.91;;;18.91
75658;BMP280;64255;49.892;17.884;2023-05-10T11:39:03;98685.53;;;19.23
75658;BMP280;64255;49.892;17.884;2023-05-10T11:41:50;98697.09;;;19.23
75658;BMP280;64255;49.892;17.884;2023-05-10T11:44:36;98686.94;;;19.51
75658;BMP280;64255;49.892;17.884;2023-05-10T11:47:23;98695.94;;;19.72
75658;BMP280;64255;49.892;17.884;2023-05-10T11:50:11;98691.81;;;19.79
75658;BMP280;64255;49.892;17.884;2023-05-10T11:52:58;98686.56;;;19.33
75658;BMP280;64255;49.892;17.884;2023-05-10T11:55:44;98695.72;;;19.03
75658;BMP280;64255;49.892;17.884;2023-05-10T11:58:31;98685.28;;;18.81
75658;BMP280;64255;49.892;17.884;2023-05-10T12:01:18;98682.28;;;18.84
75658;BMP280;64255;49.892;17.884;2023-05-10T12:04:05;98684.25;;;18.70
75658;BMP280;64255;49.892;17.884;2023-05-10T12:06:51;98676.66;;;18.82
75658;BMP280;64255;49.892;17.884;2023-05-10T12:10:05;98687.41;;;18.74
75658;BMP280;64255;49.892;17.884;2023-05-10T12:12:53;98680.41;;;18.79
75658;BMP280;64255;49.892;17.884;2023-05-10T12:15:39;98682.72;;;19.15
75658;BMP280;64255;49.892;17.884;2023-05-10T12:18:26;98693.56;;;19.02
75658;BMP280;64255;49.892;17.884;2023-05-10T12:21:13;98684.91;;;19.30
75658;BMP280;64255;49.892;17.884;2023-05-10T12:24:04;98678.44;;;19.81
75658;BMP280;64255;49.892;17.884;2023-05-10T12:26:50;98679.78;;;19.53
75658;BMP280;64255;49.892;17.884;2023-05-10T12:29:37;98682.06;;;19.49
75658;BMP280;64255;49.892;17.884;2023-05-10T12:32:44;98670.88;;;19.87
75658;BMP280;64255;49.892;17.884;2023-05-10T12:35:31;98673.81;;;20.10
75658;BMP280;64255;49.892;17.884;2023-05-10T12:38:37;98681.06;;;20.29
75658;BMP280;64255;49.892;17.884;2023-05-10T12:41:23;98672.16;;;20.28
75658;BMP280;64255;49.892;17.884;2023-05-10T12:44:10;98663.41;;;20.22
75658;BMP280;64255;49.892;17.884;2023-05-10T12:46:56;98666.06;;;20.36
75658;BMP280;64255;49.892;17.884;2023-05-10T12:49:43;98664.38;;;20.04
75658;BMP280;64255;49.892;17.884;2023-05-10T12:52:30;98664.94;;;19.89
75658;BMP280;64255;49.892;17.884;2023-05-10T12:55:17;98653.94;;;19.94
75658;BMP280;64255;49.892;17.884;2023-05-10T12:58:03;98656.66;;;20.15
75658;BMP280;64255;49.892;17.884;2023-05-10T13:00:50;98660.69;;;19.80
75658;BMP280;64255;49.892;17.884;2023-05-10T13:03:37;98658.84;;;19.96
75658;BMP280;64255;49.892;17.884;2023-05-10T13:06:23;98655.84;;;19.86
75658;BMP280;64255;49.892;17.884;2023-05-10T13:09:09;98652.47;;;19.93
75658;BMP280;64255;49.892;17.884;2023-05-10T13:11:56;98660.09;;;19.95
75658;BMP280;64255;49.892;17.884;2023-05-10T13:14:42;98650.09;;;19.90
75658;BMP280;64255;49.892;17.884;2023-05-10T13:17:29;98644.31;;;19.93
75658;BMP280;64255;49.892;17.884;2023-05-10T13:20:16;98642.53;;;20.17
75658;BMP280;64255;49.892;17.884;2023-05-10T13:23:02;98653.09;;;20.21
75658;BMP280;64255;49.892;17.884;2023-05-10T13:25:49;98651.75;;;20.14
75658;BMP280;64255;49.892;17.884;2023-05-10T13:28:35;98639.97;;;19.90
75658;BMP280;64255;49.892;17.884;2023-05-10T13:31:22;98638.34;;;20.16
75658;BMP280;64255;49.892;17.884;2023-05-10T13:34:08;98648.16;;;20.19
75658;BMP280;64255;49.892;17.884;2023-05-10T13:36:55;98647.44;;;20.19
75658;BMP280;64255;49.892;17.884;2023-05-10T13:39:41;98632.38;;;20.18
75658;BMP280;64255;49.892;17.884;2023-05-10T13:42:27;98628.13;;;19.88
75658;BMP280;64255;49.892;17.884;2023-05-10T13:45:14;98637.09;;;20.17
75658;BMP280;64255;49.892;17.884;2023-05-10T13:48:00;98631.19;;;19.84
75658;BMP280;64255;49.892;17.884;2023-05-10T13:50:47;98637.09;;;20.17
75658;BMP280;64255;49.892;17.884;2023-05-10T13:53:33;98631.78;;;20.32
75658;BMP280;64255;49.892;17.884;2023-05-10T13:56:20;98624.59;;;19.58
75658;BMP280;64255;49.892;17.884;2023-05-10T13:59:06;98633.97;;;19.09
75658;BMP280;64255;49.892;17.884;2023-05-10T14:01:53;98618.19;;;19.35
75658;BMP280;64255;49.892;17.884;2023-05-10T14:04:39;98614.94;;;19.71
75658;BMP280;64255;49.892;17.884;2023-05-10T14:07:26;98618.81;;;19.96
75658;BMP280;64255;49.892;17.884;2023-05-10T14:10:12;98624.31;;;20.04
75658;BMP280;64255;49.892;17.884;2023-05-10T14:12:59;98625.59;;;20.03
75658;BMP280;64255;49.892;17.884;2023-05-10T14:15:45;98611.41;;;19.76
75658;BMP280;64255;49.892;17.884;2023-05-10T14:18:32;98617.31;;;19.74
75658;BMP280;64255;49.892;17.884;2023-05-10T14:21:18;98618.19;;;19.69
75658;BMP280;64255;49.892;17.884;2023-05-10T14:24:05;98611.06;;;20.01
75658;BMP280;64255;49.892;17.884;2023-05-10T14:26:51;98611.28;;;20.03
75658;BMP280;64255;49.892;17.884;2023-05-10T14:29:38;98616.94;;;19.70
75658;BMP280;64255;49.892;17.884;2023-05-10T14:32:24;98617.66;;;19.36
75658;BMP280;64255;49.892;17.884;2023-05-10T14:35:11;98623.44;;;19.06
75658;BMP280;64255;49.892;17.884;2023-05-10T14:37:57;98615.91;;;18.85
75658;BMP280;64255;49.892;17.884;2023-05-10T14:40:44;98613.63;;;18.89
75658;BMP280;64255;49.892;17.884;2023-05-10T14:43:30;98605.72;;;18.78
75658;BMP280;64255;49.892;17.884;2023-05-10T14:46:17;98608.44;;;18.78
75658;BMP280;64255;49.892;17.884;2023-05-10T14:49:04;98608.44;;;18.78
75658;BMP280;64255;49.892;17.884;2023-05-10T14:51:50;98605.06;;;19.12
75658;BMP280;64255;49.892;17.884;2023-05-10T14:54:37;98606.19;;;19.03
75658;BMP280;64255;49.892;17.884;2023-05-10T14:57:23;98601.00;;;18.79
75658;BMP280;64255;49.892;17.884;2023-05-10T15:00:11;98616.25;;;18.82
75658;BMP280;64255;49.892;17.884;2023-05-10T15:02:57;98615.00;;;18.83
75658;BMP280;64255;49.892;17.884;2023-05-10T15:05:44;98612.91;;;18.76
75658;BMP280;64255;49.892;17.884;2023-05-10T15:08:30;98615.28;;;18.66
75658;BMP280;64255;49.892;17.884;2023-05-10T15:11:17;98617.78;;;18.50
75658;BMP280;64255;49.892;17.884;2023-05-10T15:14:03;98617.06;;;18.50
75658;BMP280;64255;49.892;17.884;2023-05-10T15:16:49;98613.09;;;18.51
75658;BMP280;64255;49.892;17.884;2023-05-10T15:19:36;98618.63;;;18.45
75658;BMP280;64255;49.892;17.884;2023-05-10T15:22:23;98616.13;;;18.61
75658;BMP280;64255;49.892;17.884;2023-05-10T15:25:09;98606.72;;;18.35
75658;BMP280;64255;49.892;17.884;2023-05-10T15:27:55;98611.06;;;18.38
75658;BMP280;64255;49.892;17.884;2023-05-10T15:30:42;98614.22;;;18.42
75658;BMP280;64255;49.892;17.884;2023-05-10T15:33:28;98618.59;;;18.32
75658;BMP280;64255;49.892;17.884;2023-05-10T15:36:15;98615.56;;;18.35
75658;BMP280;64255;49.892;17.884;2023-05-10T15:39:02;98611.38;;;18.34
75658;BMP280;64255;49.892;17.884;2023-05-10T15:41:49;98604.72;;;18.35
75658;BMP280;64255;49.892;17.884;2023-05-10T15:44:35;98610.00;;;18.28
75658;BMP280;64255;49.892;17.884;2023-05-10T15:47:22;98614.31;;;18.36
75658;BMP280;64255;49.892;17.884;2023-05-10T15:50:09;98610.50;;;18.45
75658;BMP280;64255;49.892;17.884;2023-05-10T15:52:56;98612.06;;;18.41
75658;BMP280;64255;49.892;17.884;2023-05-10T15:55:42;98611.78;;;18.25
75658;BMP280;64255;49.892;17.884;2023-05-10T15:58:31;98610.56;;;18.26
75658;BMP280;64255;49.892;17.884;2023-05-10T16:01:18;98616.41;;;18.30
75658;BMP280;64255;49.892;17.884;2023-05-10T16:04:04;98607.53;;;18.30
75658;BMP280;64255;49.892;17.884;2023-05-10T16:06:51;98614.59;;;18.19
75658;BMP280;64255;49.892;17.884;2023-05-10T16:09:37;98610.72;;;18.15
75658;BMP280;64255;49.892;17.884;2023-05-10T16:12:24;98621.47;;;18.20
75658;BMP280;64255;49.892;17.884;2023-05-10T16:15:10;98618.75;;;18.20
75658;BMP280;64255;49.892;17.884;2023-05-10T16:17:57;98620.31;;;18.16
75658;BMP280;64255;49.892;17.884;2023-05-10T16:20:44;98614.97;;;18.10
75658;BMP280;64255;49.892;17.884;2023-05-10T16:23:30;98613.91;;;18.13
75658;BMP280;64255;49.892;17.884;2023-05-10T16:26:17;98620.63;;;18.12
75658;BMP280;64255;49.892;17.884;2023-05-10T16:29:03;98617.69;;;18.10
75658;BMP280;64255;49.892;17.884;2023-05-10T16:31:50;98611.22;;;18.13
75658;BMP280;64255;49.892;17.884;2023-05-10T16:34:36;98618.06;;;18.01
75658;BMP280;64255;49.892;17.884;2023-05-10T16:37:23;98614.75;;;18.08
75658;BMP280;64255;49.892;17.884;2023-05-10T16:40:09;98616.53;;;18.19
75658;BMP280;64255;49.892;17.884;2023-05-10T16:42:56;98622.25;;;18.02
75658;BMP280;64255;49.892;17.884;2023-05-10T16:45:42;98616.63;;;18.00
75658;BMP280;64255;49.892;17.884;2023-05-10T16:48:29;98617.69;;;18.10
75658;BMP280;64255;49.892;17.884;2023-05-10T16:51:15;98625.16;;;18.04
75658;BMP280;64255;49.892;17.884;2023-05-10T16:54:02;98628.59;;;18.04
75658;BMP280;64255;49.892;17.884;2023-05-10T16:56:48;98626.84;;;18.07
75658;BMP280;64255;49.892;17.884;2023-05-10T16:59:35;98612.88;;;17.84
